createdAt,value
2023-03-14T00:00:01.862Z,3
2023-03-14T00:05:02.371Z,2
2023-03-14T00:10:01.901Z,1
2023-03-14T00:15:02.403Z,3
2023-03-14T00:20:01.850Z,4
2023-03-14T00:25:02.192Z,3
2023-03-14T00:30:01.565Z,4
2023-03-14T00:35:01.934Z,3
2023-03-14T00:40:01.783Z,2
2023-03-14T00:45:02.208Z,4
2023-03-14T00:50:01.707Z,3
2023-03-14T00:55:02.195Z,1
2023-03-14T01:00:01.594Z,4
2023-03-14T01:05:02.151Z,3
2023-03-14T01:10:01.679Z,4
2023-03-14T01:15:02.051Z,4
2023-03-14T01:20:01.603Z,3
2023-03-14T01:25:02.448Z,3
2023-03-14T01:30:01.833Z,4
2023-03-14T01:35:02.225Z,3
2023-03-14T01:40:01.678Z,3
2023-03-14T01:45:02.051Z,4
2023-03-14T01:50:01.424Z,2
2023-03-14T01:55:01.800Z,5
2023-03-14T02:00:02.216Z,2
2023-03-14T02:05:01.592Z,2
2023-03-14T02:10:01.986Z,1
2023-03-14T02:15:01.366Z,1
2023-03-14T02:20:01.815Z,2
2023-03-14T02:25:02.172Z,2
2023-03-14T02:30:01.985Z,2
2023-03-14T02:35:01.375Z,2
2023-03-14T02:40:01.793Z,2
2023-03-14T02:45:02.194Z,2
2023-03-14T02:50:01.554Z,2
2023-03-14T02:55:02.360Z,1
2023-03-14T03:00:01.753Z,4
2023-03-14T03:05:02.166Z,4
2023-03-14T03:10:01.689Z,3
2023-03-14T03:15:02.181Z,1
2023-03-14T03:20:01.644Z,4
2023-03-14T03:25:02.430Z,2
2023-03-14T03:30:01.918Z,3
2023-03-14T03:35:02.300Z,2
2023-03-14T03:40:02.129Z,2
2023-03-14T03:45:01.526Z,2
2023-03-14T03:50:01.894Z,3
2023-03-14T03:55:02.306Z,3
2023-03-14T04:00:01.703Z,3
2023-03-14T04:05:02.060Z,7
2023-03-14T04:10:01.579Z,4
2023-03-14T04:15:02.406Z,3
2023-03-14T04:20:01.979Z,3
2023-03-14T04:25:01.367Z,4
2023-03-14T04:30:01.749Z,5
2023-03-14T04:35:02.122Z,3
2023-03-14T04:40:01.531Z,4
2023-03-14T04:45:01.905Z,2
2023-03-14T04:50:02.261Z,2
2023-03-14T04:55:01.636Z,3
2023-03-14T05:00:02.029Z,2
2023-03-14T05:05:01.839Z,4
2023-03-14T05:10:02.664Z,3
2023-03-14T05:15:02.176Z,1
2023-03-14T05:20:01.615Z,1
2023-03-14T05:25:01.999Z,2
2023-03-14T05:30:01.351Z,3
2023-03-14T05:35:01.719Z,2
2023-03-14T05:40:02.346Z,1
2023-03-14T05:45:01.880Z,2
2023-03-14T05:50:02.415Z,2
2023-03-14T05:55:01.899Z,2
2023-03-14T06:00:02.338Z,1
2023-03-14T06:05:02.141Z,2
2023-03-14T06:10:01.982Z,0
2023-03-14T06:15:01.356Z,2
2023-03-14T06:20:01.798Z,1
2023-03-14T06:25:02.622Z,0
2023-03-14T06:30:02.030Z,2
2023-03-14T06:35:01.406Z,1
2023-03-14T06:40:01.817Z,1
2023-03-14T06:45:02.621Z,1
2023-03-14T06:50:02.009Z,0
2023-03-14T06:55:01.394Z,2
2023-03-14T07:00:01.786Z,2
2023-03-14T07:05:02.157Z,0
2023-03-14T07:10:01.593Z,1
2023-03-14T07:15:17.002Z,0
2023-03-14T07:20:01.513Z,1
2023-03-14T07:25:02.329Z,2
2023-03-14T07:30:01.879Z,1
2023-03-14T07:35:02.378Z,1
2023-03-14T07:40:01.826Z,1
2023-03-14T07:45:02.340Z,2
2023-03-14T07:50:01.753Z,1
2023-03-14T07:55:02.250Z,1
2023-03-14T08:00:01.668Z,0
2023-03-14T08:05:02.232Z,0
2023-03-14T08:10:01.653Z,2
2023-03-14T08:15:02.041Z,3
2023-03-14T08:20:01.928Z,0
2023-03-14T08:25:02.307Z,1
2023-03-14T08:30:01.679Z,0
2023-03-14T08:35:02.169Z,30
2023-03-14T08:40:02.053Z,20
2023-03-14T08:45:01.583Z,12
2023-03-14T08:50:02.381Z,17
2023-03-14T08:55:01.891Z,15
2023-03-14T09:00:02.317Z,11
2023-03-14T09:05:01.819Z,4
2023-03-14T09:10:02.241Z,8
2023-03-14T09:15:01.744Z,6
2023-03-14T09:20:02.305Z,4
2023-03-14T09:25:01.780Z,5
2023-03-14T09:30:02.180Z,5
2023-03-14T09:35:01.974Z,4
2023-03-14T09:40:01.546Z,3
2023-03-14T09:45:01.940Z,3
2023-03-14T09:50:02.479Z,2
2023-03-14T09:55:02.258Z,2
2023-03-14T10:00:01.633Z,1
2023-03-14T10:05:06.700Z,2
2023-03-14T10:10:01.536Z,3
2023-03-14T10:15:01.915Z,3
2023-03-14T10:20:01.389Z,3
2023-03-14T10:25:02.212Z,2
2023-03-14T10:30:01.622Z,2
2023-03-14T10:35:02.137Z,3
2023-03-14T10:40:02.104Z,3
2023-03-14T10:45:01.605Z,3
2023-03-14T10:50:02.406Z,2
2023-03-14T10:55:01.776Z,2
2023-03-14T11:00:02.154Z,1
2023-03-14T11:05:02.104Z,2
2023-03-14T11:10:01.707Z,1
2023-03-14T11:15:02.098Z,3
2023-03-14T11:20:02.458Z,2
2023-03-14T11:25:01.999Z,3
2023-03-14T11:30:01.402Z,1
2023-03-14T11:35:01.795Z,1
2023-03-14T11:40:02.610Z,1
2023-03-14T11:45:02.402Z,1
2023-03-14T11:50:01.918Z,2
2023-03-14T11:55:02.701Z,0
2023-03-14T12:00:02.499Z,3
2023-03-14T12:05:02.458Z,1
2023-03-14T12:10:01.918Z,0
2023-03-14T12:15:02.424Z,0
2023-03-14T12:20:02.048Z,1
2023-03-14T12:25:01.418Z,4
2023-03-14T12:30:04.022Z,3
2023-03-14T12:35:02.523Z,1
2023-03-14T12:40:02.357Z,2
2023-03-14T12:45:01.870Z,0
2023-03-14T12:50:02.859Z,2
2023-03-14T12:55:02.363Z,3
2023-03-14T13:00:02.177Z,1
2023-03-14T13:05:01.978Z,3
2023-03-14T13:10:01.607Z,1
2023-03-14T13:15:02.121Z,2
2023-03-14T13:20:01.566Z,1
2023-03-14T13:25:01.958Z,3
2023-03-14T13:30:01.806Z,2
2023-03-14T13:35:02.311Z,1
2023-03-14T13:40:01.927Z,1
2023-03-14T13:45:01.337Z,1
2023-03-14T13:50:02.114Z,1
2023-03-14T13:55:01.893Z,2
2023-03-14T14:00:02.266Z,2
2023-03-14T14:05:02.101Z,3
2023-03-14T14:10:01.959Z,2
2023-03-14T14:15:01.497Z,3
2023-03-14T14:20:02.362Z,3
2023-03-14T14:25:01.914Z,2
2023-03-14T14:30:02.298Z,0
2023-03-14T14:35:02.086Z,2
2023-03-14T14:40:01.908Z,2
2023-03-14T14:45:02.305Z,2
2023-03-14T14:50:01.673Z,1
2023-03-14T14:55:02.040Z,2
2023-03-14T15:00:01.572Z,1
2023-03-14T15:05:01.975Z,1
2023-03-14T15:10:01.540Z,1
2023-03-14T15:15:01.932Z,2
2023-03-14T15:20:01.527Z,1
2023-03-14T15:25:02.029Z,1
2023-03-14T15:30:01.538Z,0
2023-03-14T15:35:01.907Z,0
2023-03-14T15:40:03.236Z,1
2023-03-14T15:45:01.747Z,1
2023-03-14T15:50:02.645Z,1
2023-03-14T15:55:02.532Z,0
2023-03-14T16:00:01.980Z,0
2023-03-14T16:05:01.554Z,0
2023-03-14T16:10:02.441Z,1
2023-03-14T16:15:01.847Z,1
2023-03-14T16:20:02.324Z,0
2023-03-14T16:25:01.728Z,2
2023-03-14T16:30:02.538Z,1
2023-03-14T16:35:02.372Z,1
2023-03-14T16:40:13.073Z,0
2023-03-14T16:45:01.642Z,0
2023-03-14T16:50:02.450Z,1
2023-03-14T16:55:01.986Z,2
2023-03-14T17:00:01.382Z,2
2023-03-14T17:05:02.057Z,1
2023-03-14T17:10:01.655Z,3
2023-03-14T17:15:02.018Z,2
2023-03-14T17:20:01.463Z,3
2023-03-14T17:25:01.830Z,1
2023-03-14T17:30:02.193Z,2
2023-03-14T17:35:01.971Z,1
2023-03-14T17:40:01.392Z,1
2023-03-14T17:45:01.783Z,2
2023-03-14T17:50:02.283Z,1
2023-03-14T17:55:02.082Z,1
2023-03-14T18:00:01.515Z,1
2023-03-14T18:05:02.345Z,2
2023-03-14T18:10:01.898Z,5
2023-03-14T18:15:02.515Z,1
2023-03-14T18:20:02.398Z,2
2023-03-14T18:25:02.202Z,2
2023-03-14T18:30:02.001Z,2
2023-03-14T18:35:01.361Z,2
2023-03-14T18:40:01.881Z,1
2023-03-14T18:45:02.272Z,2
2023-03-14T18:50:01.655Z,1
2023-03-14T18:55:02.150Z,1
2023-03-14T19:00:01.973Z,1
2023-03-14T19:05:01.337Z,0
2023-03-14T19:10:01.737Z,2
2023-03-14T19:15:02.528Z,2
2023-03-14T19:20:01.980Z,1
2023-03-14T19:25:01.794Z,2
2023-03-14T19:30:02.184Z,3
2023-03-14T19:35:01.727Z,2
2023-03-14T19:40:02.551Z,2
2023-03-14T19:45:02.107Z,3
2023-03-14T19:50:01.476Z,2
2023-03-14T19:55:01.957Z,1
2023-03-14T20:00:01.803Z,2
2023-03-14T20:05:02.397Z,0
2023-03-14T20:10:01.920Z,1
2023-03-14T20:15:02.303Z,1
2023-03-14T20:20:02.218Z,2
2023-03-14T20:25:01.610Z,3
2023-03-14T20:30:02.017Z,1
2023-03-14T20:35:01.498Z,2
2023-03-14T20:40:01.932Z,1
2023-03-14T20:45:02.308Z,1
2023-03-14T20:50:01.818Z,0
2023-03-14T20:55:02.295Z,1
2023-03-14T21:00:01.848Z,1
2023-03-14T21:05:02.842Z,2
2023-03-14T21:10:01.510Z,0
2023-03-14T21:15:02.311Z,1
2023-03-14T21:20:01.902Z,0
2023-03-14T21:25:02.691Z,0
2023-03-14T21:30:02.275Z,0
2023-03-14T21:35:01.636Z,1
2023-03-14T21:40:02.168Z,0
2023-03-14T21:45:01.967Z,1
2023-03-14T21:50:01.478Z,0
2023-03-14T21:55:01.844Z,0
2023-03-14T22:00:02.689Z,1
2023-03-14T22:05:02.663Z,1
2023-03-14T22:10:02.503Z,1
2023-03-14T22:15:02.328Z,1
2023-03-14T22:20:01.677Z,0
2023-03-14T22:25:02.485Z,0
2023-03-14T22:30:02.274Z,1
2023-03-14T22:35:02.050Z,0
2023-03-14T22:40:01.596Z,1
2023-03-14T22:45:02.432Z,0
2023-03-14T22:50:01.907Z,1
2023-03-14T22:55:02.691Z,1
2023-03-14T23:00:02.300Z,0
2023-03-14T23:05:01.968Z,0
2023-03-14T23:10:01.496Z,1
2023-03-14T23:15:01.915Z,0
2023-03-14T23:20:02.667Z,2
2023-03-14T23:25:02.046Z,0
2023-03-14T23:30:01.545Z,0
2023-03-14T23:35:01.909Z,0
2023-03-14T23:40:02.323Z,0
2023-03-14T23:45:01.708Z,0
2023-03-14T23:50:02.082Z,0
2023-03-14T23:55:01.586Z,0
